createdAt,value
2022-07-30T09:53:54.365Z,24.30
2022-07-30T09:56:25.412Z,24.83
2022-07-30T09:58:52.364Z,25.22
2022-07-30T10:01:19.096Z,24.99
2022-07-30T10:03:46.619Z,25.12
2022-07-30T10:06:14.767Z,25.36
2022-07-30T10:08:45.975Z,25.49
2022-07-30T10:11:15.396Z,25.35
2022-07-30T10:13:45.656Z,24.72
2022-07-30T10:16:12.430Z,24.98
2022-07-30T10:18:41.817Z,25.17
2022-07-30T10:21:08.995Z,25.36
2022-07-30T10:23:36.328Z,25.27
2022-07-30T10:26:12.978Z,25.50
2022-07-30T10:28:44.526Z,25.95
2022-07-30T10:31:47.269Z,25.83
2022-07-30T10:33:58.622Z,25.55
2022-07-30T10:36:26.175Z,26.18
2022-07-30T10:38:54.661Z,27.05
2022-07-30T10:41:44.113Z,26.97
2022-07-30T10:44:44.235Z,26.89
2022-07-30T10:47:14.232Z,26.95
2022-07-30T10:50:06.029Z,25.94
2022-07-30T10:52:47.148Z,25.41
2022-07-30T10:55:15.854Z,25.14
2022-07-30T10:58:03.089Z,25.25
2022-07-30T11:00:33.808Z,24.85
2022-07-30T11:03:18.739Z,24.69
2022-07-30T11:05:47.699Z,24.54
2022-07-30T11:08:37.837Z,24.61
2022-07-30T11:12:02.350Z,24.88
2022-07-30T11:14:57.685Z,26.05
2022-07-30T11:17:24.321Z,26.72
2022-07-30T11:20:11.929Z,26.73
2022-07-30T11:22:40.172Z,27.30
2022-07-30T11:25:13.171Z,28.08
2022-07-30T11:27:41.785Z,28.48
2022-07-30T11:30:34.474Z,27.52
2022-07-30T11:33:22.235Z,26.73
2022-07-30T11:36:11.717Z,26.17
2022-07-30T11:38:52.662Z,26.01
2022-07-30T11:41:19.234Z,26.05
2022-07-30T11:43:45.804Z,25.91
2022-07-30T11:46:16.355Z,25.89
2022-07-30T11:48:55.365Z,25.75
2022-07-30T11:51:22.062Z,25.25
2022-07-30T11:54:00.586Z,24.96
2022-07-30T11:56:27.189Z,24.21
2022-07-30T11:59:04.989Z,24.07
2022-07-30T12:01:33.698Z,23.83
2022-07-30T12:04:03.522Z,23.87
2022-07-30T12:06:30.222Z,24.04
2022-07-30T12:08:58.869Z,24.12
2022-07-30T12:11:25.999Z,24.16
2022-07-30T12:13:56.524Z,24.09
2022-07-30T12:16:23.118Z,24.03
2022-07-30T12:18:51.216Z,24.09
2022-07-30T12:21:18.579Z,24.12
2022-07-30T12:23:54.504Z,24.04
2022-07-30T12:26:22.274Z,24.20
2022-07-30T12:28:49.382Z,24.26
2022-07-30T12:31:16.665Z,24.32
2022-07-30T12:33:43.400Z,24.02
2022-07-30T12:36:24.320Z,23.97
2022-07-30T12:38:50.881Z,23.83
2022-07-30T12:41:17.419Z,23.55
2022-07-30T12:43:46.765Z,23.49
2022-07-30T12:46:15.624Z,23.39
2022-07-30T12:48:53.718Z,23.26
2022-07-30T12:51:23.670Z,23.22
2022-07-30T12:53:50.844Z,23.18
2022-07-30T12:56:19.760Z,23.16
2022-07-30T12:58:46.578Z,23.32
2022-07-30T13:01:16.035Z,23.31
2022-07-30T13:03:42.970Z,23.40
2022-07-30T13:06:17.740Z,23.48
2022-07-30T13:08:48.128Z,23.73
2022-07-30T13:11:15.547Z,23.96
2022-07-30T13:13:42.231Z,24.12
2022-07-30T13:16:08.966Z,24.51
2022-07-30T13:18:36.299Z,25.05
2022-07-30T13:21:04.421Z,26.19
2022-07-30T13:23:31.037Z,27.21
2022-07-30T13:25:59.302Z,28.42
2022-07-30T13:28:26.524Z,28.84
2022-07-30T13:30:53.167Z,29.04
2022-07-30T13:33:19.929Z,28.95
2022-07-30T13:35:46.517Z,28.36
2022-07-30T13:38:13.073Z,28.14
2022-07-30T13:40:39.936Z,27.80
2022-07-30T13:43:08.041Z,27.75
2022-07-30T13:45:35.626Z,27.53
2022-07-30T13:48:02.824Z,27.36
2022-07-30T13:50:29.895Z,27.40
2022-07-30T13:53:15.541Z,27.41
2022-07-30T13:55:42.790Z,27.32
2022-07-30T13:58:10.811Z,27.57
2022-07-30T14:00:37.479Z,27.52
2022-07-30T14:03:17.190Z,27.43
2022-07-30T14:05:43.932Z,27.48
2022-07-30T14:08:11.762Z,27.30
2022-07-30T14:10:39.125Z,27.29
2022-07-30T14:13:07.615Z,27.38
2022-07-30T14:15:35.674Z,27.00
2022-07-30T14:18:02.562Z,26.82
2022-07-30T14:20:29.608Z,26.64
2022-07-30T14:22:56.254Z,26.82
2022-07-30T14:25:22.888Z,27.02
2022-07-30T14:27:49.415Z,27.63
2022-07-30T14:30:16.015Z,28.56
2022-07-30T14:32:45.004Z,29.03
2022-07-30T14:35:11.995Z,28.74
2022-07-30T14:37:39.707Z,29.10
2022-07-30T14:40:09.311Z,29.29
2022-07-30T14:42:35.856Z,28.72
2022-07-30T14:45:02.618Z,28.57
2022-07-30T14:47:29.156Z,27.89
2022-07-30T14:49:57.075Z,27.72
2022-07-30T14:52:23.650Z,27.37
2022-07-30T14:54:50.163Z,26.82
2022-07-30T14:57:16.696Z,26.42
2022-07-30T14:59:43.287Z,26.48
2022-07-30T15:02:10.695Z,26.42
2022-07-30T15:04:37.622Z,26.36
2022-07-30T15:07:05.540Z,26.15
2022-07-30T15:09:33.546Z,26.13
2022-07-30T15:12:08.640Z,26.06
2022-07-30T15:14:36.494Z,25.96
2022-07-30T15:17:04.495Z,25.96
2022-07-30T15:19:31.839Z,26.02
2022-07-30T15:21:58.983Z,26.03
2022-07-30T15:24:27.080Z,25.98
2022-07-30T15:26:53.664Z,26.14
2022-07-30T15:29:20.202Z,26.05
2022-07-30T15:31:46.766Z,25.92
2022-07-30T15:34:13.339Z,25.80
2022-07-30T15:36:39.938Z,25.76
2022-07-30T15:39:06.610Z,25.89
2022-07-30T15:41:34.565Z,25.73
2022-07-30T15:44:01.128Z,25.64
2022-07-30T15:46:27.796Z,25.40
2022-07-30T15:48:54.407Z,25.24
2022-07-30T15:51:21.190Z,25.14
2022-07-30T15:53:47.761Z,25.07
2022-07-30T15:56:14.396Z,25.03
2022-07-30T15:58:43.644Z,24.89
2022-07-30T16:01:10.508Z,24.79
2022-07-30T16:03:37.171Z,24.76
2022-07-30T16:06:03.871Z,24.69
2022-07-30T16:08:30.423Z,24.52
2022-07-30T16:10:57.975Z,24.48
2022-07-30T16:13:24.515Z,24.42
2022-07-30T16:15:52.421Z,24.35
2022-07-30T16:18:18.938Z,24.33
2022-07-30T16:20:45.604Z,24.27
2022-07-30T16:23:15.008Z,24.10
2022-07-30T16:25:44.774Z,23.91
2022-07-30T16:28:11.332Z,23.79
2022-07-30T16:30:50.397Z,23.69
2022-07-30T16:33:20.224Z,23.60
2022-07-30T16:35:49.140Z,23.55
2022-07-30T16:38:18.050Z,23.75
2022-07-30T16:40:44.799Z,23.83
2022-07-30T16:43:11.486Z,23.83
2022-07-30T16:45:38.019Z,24.44
2022-07-30T16:48:05.388Z,24.79
2022-07-30T16:50:33.306Z,25.01
2022-07-30T16:52:59.892Z,24.94
2022-07-30T16:55:26.479Z,24.84
2022-07-30T16:57:53.034Z,24.56
2022-07-30T17:00:19.596Z,24.12
2022-07-30T17:02:46.145Z,23.81
2022-07-30T17:05:13.986Z,23.69
2022-07-30T17:07:41.971Z,23.57
2022-07-30T17:10:11.061Z,23.49
2022-07-30T17:12:37.852Z,23.40
2022-07-30T17:15:05.348Z,23.38
2022-07-30T17:17:31.939Z,23.25
2022-07-30T17:19:58.566Z,23.10
2022-07-30T17:22:25.260Z,23.08
2022-07-30T17:24:53.162Z,23.01
2022-07-30T17:27:21.560Z,22.94
2022-07-30T17:29:50.560Z,22.94
2022-07-30T17:32:17.798Z,22.90
2022-07-30T17:34:44.351Z,22.73
2022-07-30T17:37:10.902Z,22.71
2022-07-30T17:40:27.387Z,22.74
2022-07-30T17:42:25.375Z,22.83
2022-07-30T17:44:52.062Z,22.80
2022-07-30T17:47:18.667Z,22.97
2022-07-30T17:49:46.325Z,23.09
2022-07-30T17:52:13.030Z,23.16
2022-07-30T17:54:39.958Z,23.17
2022-07-30T17:57:06.544Z,23.12
2022-07-30T17:59:34.471Z,23.08
2022-07-30T18:02:01.397Z,23.04
2022-07-30T18:04:28.118Z,22.98
2022-07-30T18:06:54.679Z,22.91
2022-07-30T18:09:21.266Z,22.83
2022-07-30T18:11:47.848Z,22.69
2022-07-30T18:14:14.466Z,22.55
2022-07-30T18:16:42.441Z,22.45
2022-07-30T18:19:08.995Z,22.34
2022-07-30T18:21:49.557Z,22.19
2022-07-30T18:24:16.140Z,21.99
2022-07-30T18:26:42.876Z,21.86
2022-07-30T18:29:13.760Z,21.71
2022-07-30T18:31:41.992Z,21.55
2022-07-30T18:34:08.564Z,21.39
2022-07-30T18:36:35.135Z,21.27
2022-07-30T18:39:01.671Z,21.16
2022-07-30T18:41:28.303Z,20.99
2022-07-30T18:43:54.843Z,20.88
2022-07-30T18:46:21.406Z,20.73
2022-07-30T18:48:49.338Z,20.56
2022-07-30T18:51:16.335Z,20.44
2022-07-30T18:53:42.919Z,20.27
2022-07-30T18:56:09.512Z,20.17
2022-07-30T18:58:36.105Z,20.11
2022-07-30T19:01:02.851Z,20.00
2022-07-30T19:03:29.443Z,19.92
2022-07-30T19:05:57.367Z,19.82
2022-07-30T19:08:23.890Z,19.71
2022-07-30T19:10:50.462Z,19.58
2022-07-30T19:13:17.078Z,19.46
2022-07-30T19:15:43.623Z,19.38
2022-07-30T19:18:10.155Z,19.28
2022-07-30T19:20:36.740Z,19.14
2022-07-30T19:23:06.820Z,19.00
2022-07-30T19:25:34.655Z,18.90
2022-07-30T19:28:01.790Z,18.80
2022-07-30T19:30:29.153Z,18.70
2022-07-30T19:33:01.750Z,18.63
2022-07-30T19:35:28.313Z,18.50
2022-07-30T19:37:54.859Z,18.42
2022-07-30T19:40:22.841Z,18.30
2022-07-30T19:42:55.936Z,18.17
2022-07-30T19:45:23.282Z,18.08
2022-07-30T19:47:49.993Z,17.95
2022-07-30T19:50:16.598Z,17.86
2022-07-30T19:52:51.603Z,17.78
2022-07-30T19:55:35.437Z,17.68
2022-07-30T19:58:04.367Z,17.59
2022-07-30T20:00:31.119Z,17.55
2022-07-30T20:03:02.383Z,17.43
2022-07-30T20:05:30.546Z,17.33
2022-07-30T20:07:57.143Z,17.27
2022-07-30T20:10:23.836Z,17.21
2022-07-30T20:12:50.395Z,17.17
2022-07-30T20:15:18.301Z,17.09
2022-07-30T20:17:46.439Z,17.01
2022-07-30T20:20:13.600Z,16.91
2022-07-30T20:22:40.533Z,16.86
2022-07-30T20:25:08.929Z,16.81
2022-07-30T20:27:38.417Z,16.76
2022-07-30T20:30:07.534Z,16.67
2022-07-30T20:32:35.915Z,16.64
2022-07-30T20:35:02.965Z,16.55
2022-07-30T20:37:29.841Z,16.44
2022-07-30T20:39:56.720Z,16.41
2022-07-30T20:42:23.773Z,16.36
2022-07-30T20:44:50.984Z,16.33
2022-07-30T20:47:17.755Z,16.30
2022-07-30T20:50:03.229Z,16.24
2022-07-30T20:52:30.123Z,16.12
2022-07-30T20:54:56.742Z,16.08
2022-07-30T20:57:44.451Z,16.01
2022-07-30T21:00:12.848Z,15.96
2022-07-30T21:02:39.400Z,15.89
2022-07-30T21:05:08.206Z,15.88
2022-07-30T21:07:40.455Z,15.84
2022-07-30T21:10:11.492Z,15.84
2022-07-30T21:12:38.927Z,15.79
2022-07-30T21:15:11.845Z,15.75
2022-07-30T21:17:50.794Z,15.73
2022-07-30T21:20:26.619Z,15.76
2022-07-30T21:22:55.116Z,15.75
2022-07-30T21:25:23.553Z,15.74
2022-07-30T21:28:08.578Z,15.74
2022-07-30T21:30:45.084Z,15.71
2022-07-30T21:33:11.966Z,15.73
2022-07-30T21:35:40.110Z,15.73
2022-07-30T21:38:07.895Z,15.70
2022-07-30T21:40:35.455Z,15.68
2022-07-30T21:43:03.772Z,15.61
2022-07-30T21:45:38.753Z,15.59
2022-07-30T21:48:06.539Z,15.57
2022-07-30T21:50:33.761Z,15.56
2022-07-30T21:53:01.681Z,15.56
2022-07-30T21:55:33.565Z,15.57
2022-07-30T21:58:24.058Z,15.54
2022-07-30T22:01:01.539Z,15.56
2022-07-30T22:04:03.857Z,15.55
2022-07-30T22:06:29.599Z,15.53
2022-07-30T22:08:57.889Z,15.51
2022-07-30T22:11:24.609Z,15.50
2022-07-30T22:14:09.484Z,15.46
2022-07-30T22:16:36.226Z,15.44
2022-07-30T22:19:03.593Z,15.39
2022-07-30T22:21:30.509Z,15.36
2022-07-30T22:23:59.840Z,15.33
2022-07-30T22:26:26.816Z,15.29
2022-07-30T22:28:54.308Z,15.26
2022-07-30T22:31:21.397Z,15.21
2022-07-30T22:36:35.115Z,15.14
2022-07-30T22:39:03.102Z,15.12
2022-07-30T22:41:35.526Z,15.09
2022-07-30T22:44:02.059Z,15.06
2022-07-30T22:46:30.754Z,15.01
2022-07-30T22:48:57.878Z,14.97
2022-07-30T22:51:26.255Z,14.94
2022-07-30T22:54:14.212Z,14.93
2022-07-30T22:56:41.502Z,14.91
2022-07-30T22:59:08.223Z,14.90
2022-07-30T23:01:34.768Z,14.87
2022-07-30T23:04:01.701Z,14.83
2022-07-30T23:09:16.422Z,14.80
2022-07-30T23:11:42.985Z,14.81
2022-07-30T23:12:30.937Z,14.83
2022-07-30T23:12:31.607Z,15.17
2022-07-30T23:14:10.875Z,14.79
2022-07-30T23:16:38.254Z,14.81
2022-07-30T23:19:05.740Z,14.81
2022-07-30T23:21:32.509Z,14.84
2022-07-30T23:23:59.220Z,14.85
2022-07-30T23:26:27.120Z,14.84
2022-07-30T23:28:53.676Z,14.84
2022-07-30T23:31:22.962Z,14.85
2022-07-30T23:33:53.046Z,14.84
2022-07-30T23:36:19.578Z,14.84
2022-07-30T23:38:46.279Z,14.80
2022-07-30T23:41:12.930Z,14.78
2022-07-30T23:43:40.832Z,14.75
2022-07-30T23:46:10.966Z,14.75
2022-07-30T23:48:37.820Z,14.75
2022-07-30T23:51:04.352Z,14.73
2022-07-30T23:53:30.884Z,14.72
2022-07-30T23:55:57.451Z,14.71
2022-07-30T23:58:23.991Z,14.65
